Time;durP1;ratioP1;P1;durP2;ratioP2;P2;SDS_P1;SDS_P2;PMS_P1;PMS_P2;Temp;Humidity;BMP_temperature;BMP_pressure;BME280_temperature;BME280_humidity;BME280_pressure;Samples;Min_cycle;Max_cycle;Signal;HPM_P1;HPM_P2
2020/12/10 00:02:06;;;;;;;91.28;40.15;;;;;;;-0.23;76.81;99964.73;2215245;80;27729;-66
2020/12/10 00:05:10;;;;;;;82.57;37.75;;;;;;;-0.24;76.90;99961.25;2216339;80;28890;-65
2020/12/10 00:08:12;;;;;;;94.03;41.58;;;;;;;-0.23;76.85;99957.73;2178032;81;31072;-65
2020/12/10 00:11:15;;;;;;;85.62;42.25;;;;;;;-0.20;76.95;99959.45;2178398;80;33195;-65
2020/12/10 00:14:17;;;;;;;91.37;37.58;;;;;;;-0.18;76.92;99951.09;2177798;81;28866;-65
2020/12/10 00:17:25;;;;;;;90.32;42.25;;;;;;;-0.16;76.87;99949.32;2179410;80;27742;-65
2020/12/10 00:20:27;;;;;;;90.72;39.05;;;;;;;-0.15;76.82;99951.06;2201750;80;28816;-64
2020/12/10 00:23:29;;;;;;;95.32;41.68;;;;;;;-0.19;76.74;99948.03;2217224;80;32023;-64
2020/12/10 00:26:31;;;;;;;87.00;41.58;;;;;;;-0.21;76.79;99946.75;2201371;80;33130;-65
2020/12/10 00:29:34;;;;;;;92.65;40.35;;;;;;;-0.19;76.84;99955.50;2179117;80;28954;-65
2020/12/10 00:32:36;;;;;;;78.20;35.45;;;;;;;-0.20;76.67;99947.17;2179036;80;27842;-65
2020/12/10 00:35:38;;;;;;;87.80;40.65;;;;;;;-0.24;76.62;99952.04;2182703;80;28830;-65
2020/12/10 00:38:41;;;;;;;97.08;39.78;;;;;;;-0.26;76.63;99951.17;2217658;80;31263;-65
2020/12/10 00:41:43;;;;;;;86.80;38.17;;;;;;;-0.26;76.67;99949.86;2217699;80;33572;-66
2020/12/10 00:44:46;;;;;;;82.25;38.33;;;;;;;-0.25;76.72;99940.22;2217376;80;28869;-65
2020/12/10 00:47:48;;;;;;;88.27;37.55;;;;;;;-0.24;76.79;99941.51;2216049;80;27792;-65
2020/12/10 00:50:50;;;;;;;98.22;38.98;;;;;;;-0.18;76.87;99943.20;2217254;80;28077;-65
2020/12/10 00:53:52;;;;;;;99.83;42.58;;;;;;;-0.18;76.73;99942.77;2217690;80;32109;-65
2020/12/10 00:56:55;;;;;;;95.25;41.25;;;;;;;-0.15;76.71;99936.58;2213638;80;33082;-65
2020/12/10 00:59:57;;;;;;;86.15;39.45;;;;;;;-0.23;76.57;99940.63;2211737;80;29032;-64
2020/12/10 01:02:59;;;;;;;86.60;40.08;;;;;;;-0.25;76.73;99924.42;2188570;80;28168;-65
2020/12/10 01:06:01;;;;;;;84.87;39.60;;;;;;;-0.29;76.68;99930.15;2179389;80;28830;-65
2020/12/10 01:09:09;;;;;;;80.38;35.50;;;;;;;-0.29;76.74;99920.94;2178235;81;32119;-65
2020/12/10 01:12:11;;;;;;;77.95;32.20;;;;;;;-0.33;76.69;99926.69;2178270;81;32737;-66
2020/12/10 01:15:14;;;;;;;83.65;35.33;;;;;;;-0.35;76.71;99928.92;2177339;81;29713;-65
2020/12/10 01:18:17;;;;;;;79.42;36.33;;;;;;;-0.42;76.66;99924.59;2213650;80;27647;-65
2020/12/10 01:21:33;;;;;;;77.65;34.13;;;;;;;-0.45;76.67;99922.88;2216620;80;28873;-64
2020/12/10 01:24:36;;;;;;;87.02;39.30;;;;;;;-0.56;76.58;99929.56;2192080;80;32024;-65
2020/12/10 01:27:38;;;;;;;89.25;37.80;;;;;;;-0.60;76.73;99917.32;2178659;80;33153;-66
2020/12/10 01:30:40;;;;;;;81.12;36.98;;;;;;;-0.62;76.81;99908.56;2176782;81;28894;-65
2020/12/10 01:33:42;;;;;;;82.62;35.98;;;;;;;-0.60;76.99;99905.48;2178591;80;27747;-65
2020/12/10 01:36:45;;;;;;;93.22;37.90;;;;;;;-0.61;77.00;99909.00;2177770;80;29025;-65
2020/12/10 01:39:47;;;;;;;88.90;38.40;;;;;;;-0.58;76.98;99901.54;2178024;81;31148;-65
2020/12/10 01:42:49;;;;;;;81.45;35.33;;;;;;;-0.57;77.06;99892.30;2177644;81;33637;-65
2020/12/10 01:45:51;;;;;;;83.30;37.90;;;;;;;-0.50;77.19;99898.37;2179895;80;28861;-65
2020/12/10 01:48:53;;;;;;;83.97;34.88;;;;;;;-0.49;77.03;99896.17;2178168;81;27616;-65
2020/12/10 01:51:56;;;;;;;85.90;38.38;;;;;;;-0.49;76.93;99889.13;2178190;81;29264;-65
2020/12/10 01:54:58;;;;;;;71.72;31.12;;;;;;;-0.47;77.07;99885.19;2180354;80;32269;-65
2020/12/10 01:58:00;;;;;;;87.02;36.28;;;;;;;-0.46;77.06;99882.52;2215736;80;32978;-65
2020/12/10 02:01:03;;;;;;;90.25;34.73;;;;;;;-0.47;76.96;99888.67;2215106;80;28989;-65
2020/12/10 02:04:24;;;;;;;77.35;35.03;;;;;;;-0.50;76.84;99883.47;2213527;80;28034;-65
2020/12/10 02:07:27;;;;;;;77.72;33.28;;;;;;;-0.57;76.84;99883.09;2192711;80;28830;-65
2020/12/10 02:10:29;;;;;;;79.70;32.53;;;;;;;-0.55;77.00;99884.38;2214519;80;31146;-65
2020/12/10 02:13:31;;;;;;;76.17;33.85;;;;;;;-0.58;77.00;99880.03;2216681;79;33106;-65
2020/12/10 02:16:33;;;;;;;82.47;32.42;;;;;;;-0.57;77.01;99879.58;2206434;79;28913;-65
2020/12/10 02:19:35;;;;;;;70.25;31.97;;;;;;;-0.57;77.00;99871.69;2178409;81;27771;-66
2020/12/10 02:22:37;;;;;;;83.40;33.67;;;;;;;-0.58;76.99;99873.92;2177788;81;29768;-65
2020/12/10 02:25:40;;;;;;;78.97;34.35;;;;;;;-0.60;76.98;99875.23;2177787;81;32236;-65
2020/12/10 02:28:42;;;;;;;81.92;33.40;;;;;;;-0.61;77.03;99873.48;2215884;80;33109;-65
2020/12/10 02:31:44;;;;;;;88.40;33.73;;;;;;;-0.63;77.03;99869.99;2205838;80;28794;-65
2020/12/10 02:34:50;;;;;;;82.22;32.38;;;;;;;-0.61;77.14;99865.59;2195889;80;27714;-65
2020/12/10 02:37:52;;;;;;;;;;;;;;;-0.62;77.18;99871.31;2192012;80;28864;-65
2020/12/10 02:40:54;;;;;;;88.40;34.25;;;;;;;-0.59;77.16;99860.33;2178099;81;32096;-65
2020/12/10 02:43:57;;;;;;;84.52;34.48;;;;;;;-0.60;77.26;99861.22;2177466;81;33069;-66
2020/12/10 02:46:59;;;;;;;74.72;31.12;;;;;;;-0.57;77.22;99864.68;2180546;80;28703;-66
2020/12/10 02:50:01;;;;;;;66.50;28.83;;;;;;;-0.58;77.18;99858.98;2178529;81;27657;-65
2020/12/10 02:53:05;;;;;;;77.55;31.75;;;;;;;-0.55;77.27;99856.33;2178404;81;28752;-65
2020/12/10 02:56:15;;;;;;;86.25;33.80;;;;;;;-0.58;77.18;99866.02;2178666;80;31263;-65
2020/12/10 02:59:17;;;;;;;93.58;37.65;;;;;;;-0.55;77.30;99845.80;2178402;81;34523;-65
2020/12/10 03:02:19;;;;;;;69.90;30.32;;;;;;;-0.47;77.33;99846.57;2187467;80;29791;-65
2020/12/10 03:05:21;;;;;;;86.75;34.98;;;;;;;-0.43;77.19;99848.74;2200497;80;27720;-66
2020/12/10 03:08:24;;;;;;;74.20;33.25;;;;;;;-0.43;77.07;99837.33;2206365;80;29760;-66
2020/12/10 03:11:26;;;;;;;73.95;31.12;;;;;;;-0.41;77.16;99834.23;2216340;79;31147;-66
2020/12/10 03:14:28;;;;;;;76.30;31.00;;;;;;;-0.40;77.05;99831.58;2217051;80;34008;-66
2020/12/10 03:17:31;;;;;;;68.15;31.95;;;;;;;-0.39;76.95;99828.06;2217207;80;29170;-66
2020/12/10 03:20:33;;;;;;;76.20;34.03;;;;;;;-0.44;76.93;99829.01;2210606;79;27637;-66
2020/12/10 03:23:35;;;;;;;72.92;30.35;;;;;;;-0.44;76.95;99823.31;2178398;81;28878;-65
2020/12/10 03:26:37;;;;;;;74.32;31.23;;;;;;;-0.46;77.04;99816.73;2203489;80;31152;-66
2020/12/10 03:29:39;;;;;;;85.42;36.83;;;;;;;-0.48;77.04;99816.34;2216509;80;33148;-65
2020/12/10 03:32:41;;;;;;;82.00;37.13;;;;;;;-0.51;77.12;99812.42;2193191;80;29162;-65
2020/12/10 03:35:44;;;;;;;87.20;33.18;;;;;;;-0.50;77.28;99810.23;2178591;81;28126;-66
2020/12/10 03:38:46;;;;;;;76.07;33.30;;;;;;;-0.44;77.44;99808.84;2178611;81;30182;-66
2020/12/10 03:41:50;;;;;;;84.15;32.33;;;;;;;-0.41;77.24;99796.94;2179130;80;32115;-66
2020/12/10 03:44:52;;;;;;;82.22;32.45;;;;;;;-0.40;77.22;99796.05;2178235;81;34054;-67
2020/12/10 03:47:54;;;;;;;76.55;32.75;;;;;;;-0.37;77.10;99797.33;2178622;81;30110;-64
2020/12/10 03:50:56;;;;;;;73.22;30.32;;;;;;;-0.40;76.99;99800.00;2185022;80;27781;-65
2020/12/10 03:53:58;;;;;;;70.52;28.83;;;;;;;-0.42;76.87;99808.81;2217016;80;28810;-66
2020/12/10 03:57:02;;;;;;;68.33;29.70;;;;;;;-0.51;76.82;99800.59;2216839;80;31384;-67
2020/12/10 04:00:05;;;;;;;70.85;28.50;;;;;;;-0.56;76.93;99805.91;2216957;79;33283;-66
2020/12/10 04:03:07;;;;;;;71.02;29.52;;;;;;;-0.60;77.03;99798.94;2207412;80;29616;-66
2020/12/10 04:06:09;;;;;;;66.62;29.92;;;;;;;-0.61;77.07;99802.45;2217098;80;27614;-66
2020/12/10 04:09:12;;;;;;;68.45;30.62;;;;;;;-0.61;77.20;99791.94;2205326;80;28846;-66
2020/12/10 04:12:14;;;;;;;73.95;30.77;;;;;;;-0.57;77.23;99788.81;2216860;79;31136;-67
2020/12/10 04:15:16;;;;;;;84.52;33.98;;;;;;;-0.58;77.21;99778.75;2215451;79;33204;-66
2020/12/10 04:18:19;;;;;;;91.87;37.60;;;;;;;-0.53;77.27;99782.63;2170320;80;28419;-66
2020/12/10 04:21:21;;;;;;;104.85;40.00;;;;;;;-0.49;77.30;99792.23;2168564;82;27708;-66
2020/12/10 04:24:23;;;;;;;147.90;51.18;;;;;;;-0.43;77.21;99792.59;2162612;82;28789;-66
2020/12/10 04:27:26;;;;;;;94.55;37.08;;;;;;;-0.37;77.18;99793.38;2163000;80;31207;-67
2020/12/10 04:30:28;;;;;;;128.68;49.70;;;;;;;-0.28;77.11;99795.48;2168606;82;33566;-67
2020/12/10 04:33:30;;;;;;;71.05;31.23;;;;;;;-0.24;77.08;99790.58;2169878;80;29254;-64
2020/12/10 04:36:33;;;;;;;96.15;38.55;;;;;;;-0.24;76.99;99788.84;2168634;82;27723;-64
2020/12/10 04:39:37;;;;;;;100.90;42.35;;;;;;;-0.21;77.13;99783.97;2168495;82;29980;-64
2020/12/10 04:42:41;;;;;;;100.72;41.25;;;;;;;-0.12;77.17;99790.86;2168439;81;32210;-65
2020/12/10 04:45:44;;;;;;;96.80;37.88;;;;;;;-0.12;76.92;99785.59;2168955;80;33586;-65
2020/12/10 04:48:47;;;;;;;161.75;63.33;;;;;;;-0.12;76.85;99777.70;2168535;81;29928;-66
2020/12/10 04:51:49;;;;;;;117.93;45.08;;;;;;;-0.18;76.61;99779.55;2167869;80;27741;-65
2020/12/10 04:54:51;;;;;;;75.15;31.20;;;;;;;-0.23;76.75;99781.36;2168430;82;28794;-66
2020/12/10 04:57:55;;;;;;;74.30;31.85;;;;;;;-0.24;76.70;99780.05;2168760;80;32226;-65
2020/12/10 05:01:01;;;;;;;88.80;38.38;;;;;;;-0.31;76.60;99781.90;2167967;80;33126;-66
2020/12/10 05:04:04;;;;;;;107.27;40.67;;;;;;;-0.34;76.65;99785.91;2158311;82;29344;-65
2020/12/10 05:07:06;;;;;;;70.75;30.62;;;;;;;-0.40;76.64;99781.58;2159071;80;27719;-66
2020/12/10 05:10:09;;;;;;;61.95;27.87;;;;;;;-0.40;76.74;99773.68;2206758;80;29797;-65
2020/12/10 05:13:13;;;;;;;70.45;31.85;;;;;;;-0.42;76.75;99774.17;2207144;80;31149;-65
2020/12/10 05:16:22;;;;;;;72.32;29.48;;;;;;;-0.38;76.87;99775.85;2211694;80;32990;-66
2020/12/10 05:19:24;;;;;;;67.97;29.80;;;;;;;-0.40;76.74;99772.37;2195786;80;29683;-65
2020/12/10 05:22:26;;;;;;;70.50;28.65;;;;;;;-0.39;76.78;99778.05;2217384;80;27636;-66
2020/12/10 05:25:28;;;;;;;77.30;29.87;;;;;;;-0.38;76.79;99777.17;2217062;80;28884;-65
2020/12/10 05:28:49;;;;;;;67.10;29.40;;;;;;;-0.40;76.75;99778.95;2216569;80;32036;-66
2020/12/10 05:31:52;;;;;;;75.85;32.50;;;;;;;-0.44;76.78;99776.38;2195609;80;34337;-65
2020/12/10 05:34:55;;;;;;;124.22;50.12;;;;;;;-0.44;76.90;99768.06;2180311;80;30061;-65
2020/12/10 05:37:59;;;;;;;97.00;40.78;;;;;;;-0.48;76.77;99763.26;2209258;80;27639;-65
2020/12/10 05:41:24;;;;;;;120.97;50.88;;;;;;;-0.49;76.78;99765.46;2175977;80;30165;-66
2020/12/10 05:44:27;;;;;;;84.50;37.43;;;;;;;-0.50;76.83;99770.76;2217740;80;30491;-65
2020/12/10 05:47:29;;;;;;;89.58;40.25;;;;;;;-0.46;76.87;99763.26;2215490;80;33127;-65
2020/12/10 05:50:34;;;;;;;81.02;34.25;;;;;;;-0.42;76.98;99765.39;2178712;80;29277;-65
2020/12/10 05:53:38;;;;;;;71.30;28.73;;;;;;;-0.43;76.87;99764.54;2186410;80;27798;-66
2020/12/10 05:57:05;;;;;;;87.60;40.23;;;;;;;-0.45;76.79;99758.42;2216080;80;28824;-66
2020/12/10 06:00:08;;;;;;;111.05;43.68;;;;;;;-0.43;76.88;99763.65;2215382;80;31138;-65
2020/12/10 06:03:11;;;;;;;71.28;28.85;;;;;;;-0.45;76.77;99758.42;2187374;80;33118;-65
2020/12/10 06:06:14;;;;;;;68.57;26.90;;;;;;;-0.46;76.78;99764.11;2184322;80;29174;-65
2020/12/10 06:09:19;;;;;;;72.78;30.95;;;;;;;-0.46;76.91;99760.62;2217082;80;27837;-65
2020/12/10 06:12:25;;;;;;;73.83;30.70;;;;;;;-0.48;76.73;99754.51;2216607;80;28806;-67
2020/12/10 06:19:06;;;;;;;73.33;30.30;;;;;;;-0.49;76.85;99755.40;2227679;77;37294;-65
2020/12/10 06:22:27;;;;;;;79.60;32.00;;;;;;;-0.57;76.93;99748.92;2164868;81;28163;-65
2020/12/10 06:25:29;;;;;;;77.35;30.08;;;;;;;-0.55;76.96;99751.09;2182262;80;28836;-65
2020/12/10 06:28:32;;;;;;;66.65;27.22;;;;;;;-0.60;76.95;99747.64;2184800;80;31171;-65
2020/12/10 06:31:34;;;;;;;72.92;30.70;;;;;;;-0.61;77.06;99745.90;2178689;80;33580;-64
2020/12/10 06:34:44;;;;;;;78.40;33.55;;;;;;;-0.63;77.09;99756.87;2178993;80;28537;-64
2020/12/10 06:37:49;;;;;;;81.67;36.68;;;;;;;-0.62;77.11;99744.16;2178767;81;27582;-64
2020/12/10 06:40:59;;;;;;;80.20;35.80;;;;;;;-0.62;77.00;99747.67;2178723;81;30056;-64
2020/12/10 06:44:01;;;;;;;75.15;30.48;;;;;;;-0.64;76.96;99746.81;2178570;81;31353;-65
2020/12/10 06:47:06;;;;;;;68.30;28.98;;;;;;;-0.67;76.97;99752.11;2178862;81;33188;-64
2020/12/10 06:50:24;;;;;;;77.55;32.33;;;;;;;-0.66;76.99;99742.02;2179036;81;28919;-65
2020/12/10 06:53:27;;;;;;;78.20;33.75;;;;;;;-0.62;77.10;99741.52;2182431;80;28264;-64
2020/12/10 06:56:31;;;;;;;68.87;30.75;;;;;;;-0.59;77.09;99738.00;2217266;80;28826;-64
2020/12/10 06:59:38;;;;;;;67.72;29.05;;;;;;;-0.56;77.04;99736.20;2216896;80;31214;-64
2020/12/10 07:02:40;;;;;;;75.37;29.00;;;;;;;-0.51;77.07;99737.02;2217010;80;34434;-65
2020/12/10 07:05:44;;;;;;;82.88;35.43;;;;;;;-0.50;77.00;99739.19;2206111;80;28960;-65
2020/12/10 07:09:08;;;;;;;71.20;31.25;;;;;;;-0.48;77.04;99734.31;2178521;81;27717;-65
2020/12/10 07:12:20;;;;;;;69.65;30.08;;;;;;;-0.44;77.08;99732.53;2178564;81;28667;-65
2020/12/10 07:15:27;;;;;;;68.50;28.92;;;;;;;-0.41;76.95;99732.93;2178262;81;31138;-65
2020/12/10 07:18:30;;;;;;;69.07;30.08;;;;;;;-0.41;76.93;99728.98;2178366;81;33973;-65
2020/12/10 07:21:33;;;;;;;66.62;30.12;;;;;;;-0.39;76.89;99729.83;2178336;81;29747;-65
2020/12/10 07:24:36;;;;;;;62.13;28.52;;;;;;;-0.40;76.87;99723.68;2178674;81;27601;-65
2020/12/10 07:27:45;;;;;;;65.85;27.10;;;;;;;-0.35;76.96;99722.33;2178379;81;29850;-65
2020/12/10 07:30:49;;;;;;;73.30;30.97;;;;;;;-0.32;76.83;99718.31;2176233;81;32145;-65
2020/12/10 07:33:56;;;;;;;72.08;34.60;;;;;;;-0.32;76.80;99715.67;2177846;81;33125;-64
2020/12/10 07:36:59;;;;;;;88.58;37.38;;;;;;;-0.34;76.80;99718.80;2177993;81;30097;-65
2020/12/10 07:40:15;;;;;;;49.98;23.02;;;;;;;-0.32;76.82;99718.31;2176877;81;27746;-65
2020/12/10 07:43:17;;;;;;;91.97;42.58;;;;;;;-0.34;76.85;99719.66;2178240;81;29806;-64
2020/12/10 07:46:21;;;;;;;76.62;33.08;;;;;;;-0.38;76.91;99718.41;2178213;81;32044;-64
2020/12/10 07:49:31;;;;;;;70.30;32.45;;;;;;;-0.37;76.95;99714.89;2178167;81;29193;-64
2020/12/10 07:52:33;;;;;;;86.25;37.48;;;;;;;-0.35;76.89;99710.48;2178320;80;29703;-64
2020/12/10 07:55:51;;;;;;;73.40;31.33;;;;;;;-0.34;76.99;99706.96;2160240;80;28150;-64
2020/12/10 07:59:13;;;;;;;57.50;24.18;;;;;;;-0.33;77.00;99710.87;2216420;80;28813;-65
2020/12/10 08:02:17;;;;;;;70.30;30.27;;;;;;;-0.40;76.80;99713.16;2215561;80;31190;-65
2020/12/10 08:05:22;;;;;;;52.35;21.55;;;;;;;-0.41;77.04;99704.84;2186650;80;33106;-64
2020/12/10 08:08:42;;;;;;;60.92;26.05;;;;;;;-0.40;76.71;99701.78;2216412;80;32993;-65
2020/12/10 08:11:54;;;;;;;56.75;25.50;;;;;;;-0.42;76.73;99708.81;2201014;80;27652;-65
2020/12/10 08:14:56;;;;;;;61.80;27.20;;;;;;;-0.43;76.74;99702.70;2178044;81;28788;-64
2020/12/10 08:18:05;;;;;;;57.27;26.57;;;;;;;-0.44;76.86;99704.02;2177809;81;31178;-65
2020/12/10 08:21:07;;;;;;;58.40;26.70;;;;;;;-0.46;76.74;99700.11;2176886;81;33129;-65
2020/12/10 08:24:12;;;;;;;60.63;26.55;;;;;;;-0.47;76.84;99699.22;2177900;81;29815;-64
2020/12/10 08:27:17;;;;;;;57.08;27.60;;;;;;;-0.44;76.78;99700.95;2178119;80;27687;-64
2020/12/10 08:30:19;;;;;;;45.67;21.65;;;;;;;-0.47;76.88;99702.31;2178121;81;28035;-65
2020/12/10 08:33:22;;;;;;;63.50;28.38;;;;;;;-0.45;76.84;99703.16;2192677;80;31191;-64
2020/12/10 08:36:33;;;;;;;72.65;32.58;;;;;;;-0.40;77.05;99711.84;2186053;80;34729;-65
2020/12/10 08:39:40;;;;;;;70.90;29.65;;;;;;;-0.34;77.01;99706.50;2216496;80;28854;-65
2020/12/10 08:42:42;;;;;;;64.90;29.60;;;;;;;-0.32;76.96;99703.41;2216687;80;27880;-64
2020/12/10 08:45:47;;;;;;;64.75;25.45;;;;;;;-0.30;76.96;99699.42;2216822;80;28763;-65
2020/12/10 08:48:50;;;;;;;60.25;24.52;;;;;;;-0.31;76.77;99701.20;2216904;80;31167;-65
2020/12/10 08:51:52;;;;;;;63.35;27.13;;;;;;;-0.39;76.74;99701.74;2216537;80;33073;-64
2020/12/10 08:54:54;;;;;;;63.05;26.12;;;;;;;-0.41;76.88;99703.52;2212651;80;28852;-64
2020/12/10 08:57:57;;;;;;;65.85;27.35;;;;;;;-0.39;76.96;99697.80;2177902;81;27797;-64
2020/12/10 09:01:00;;;;;;;78.40;33.42;;;;;;;-0.42;76.93;99699.61;2178032;81;30073;-64
2020/12/10 09:04:04;;;;;;;77.78;30.97;;;;;;;-0.42;77.01;99698.30;2177742;81;31208;-64
2020/12/10 09:07:07;;;;;;;71.33;30.02;;;;;;;-0.41;77.11;99696.94;2177291;81;33106;-65
2020/12/10 09:10:10;;;;;;;73.37;30.40;;;;;;;-0.39;77.08;99700.42;2177963;81;28899;-65
2020/12/10 09:13:13;;;;;;;67.82;30.10;;;;;;;-0.40;77.09;99693.88;2177965;81;27719;-63
2020/12/10 09:16:17;;;;;;;56.80;22.77;;;;;;;-0.40;77.07;99690.78;2178043;81;28808;-65
2020/12/10 09:19:20;;;;;;;62.43;29.55;;;;;;;-0.41;77.03;99696.94;2178035;80;32558;-65
2020/12/10 09:22:22;;;;;;;79.55;34.48;;;;;;;-0.40;77.12;99694.73;2177563;81;33938;-66
2020/12/10 09:25:24;;;;;;;74.60;31.05;;;;;;;-0.39;77.16;99692.53;2176873;81;28869;-65
2020/12/10 09:28:28;;;;;;;61.18;27.70;;;;;;;-0.38;77.07;99681.58;2194769;80;27741;-66
2020/12/10 09:31:31;;;;;;;64.47;30.20;;;;;;;-0.35;77.18;99685.48;2216494;80;28873;-65
2020/12/10 09:34:33;;;;;;;53.13;23.07;;;;;;;-0.30;77.24;99683.63;2216490;80;31211;-65
2020/12/10 09:37:40;;;;;;;53.02;23.30;;;;;;;-0.26;77.12;99675.27;2216467;80;32952;-65
2020/12/10 09:40:42;;;;;;;54.40;24.92;;;;;;;-0.24;77.00;99665.13;2216535;80;28836;-66
2020/12/10 09:43:45;;;;;;;63.10;25.88;;;;;;;-0.23;77.02;99662.92;2216524;80;27662;-64
2020/12/10 09:46:47;;;;;;;57.00;25.20;;;;;;;-0.25;76.91;99671.74;2191675;80;28868;-66
2020/12/10 09:49:50;;;;;;;64.05;27.65;;;;;;;-0.33;76.91;99660.87;2177740;81;31139;-67
2020/12/10 09:59:19;;;;;;;60.78;26.73;;;;;;;-0.39;77.08;99649.11;2262710;78;27802;-64
2020/12/10 10:02:23;;;;;;;65.28;28.10;;;;;;;-0.43;77.16;99644.81;2262407;78;29257;-64
2020/12/10 10:05:26;;;;;;;58.10;25.12;;;;;;;-0.41;77.20;99648.72;2249272;78;31121;-65
2020/12/10 10:08:32;;;;;;;64.87;28.87;;;;;;;-0.42;77.24;99639.97;2221979;80;33966;-66
2020/12/10 10:11:34;;;;;;;58.65;24.27;;;;;;;-0.39;77.27;99630.69;2222374;80;29422;-65
2020/12/10 10:14:37;;;;;;;62.48;27.58;;;;;;;-0.32;77.33;99636.72;2233991;78;27682;-65
2020/12/10 10:17:39;;;;;;;68.50;29.40;;;;;;;-0.25;77.31;99635.74;2262466;78;28794;-67
2020/12/10 10:20:44;;;;;;;67.95;29.92;;;;;;;-0.19;77.31;99638.29;2262047;78;31164;-66
2020/12/10 10:23:46;;;;;;;71.00;28.92;;;;;;;-0.11;77.40;99627.63;2262570;78;33085;-65
2020/12/10 10:26:49;;;;;;;69.20;30.62;;;;;;;-0.06;77.24;99622.28;2238569;78;28726;-65
2020/12/10 10:29:52;;;;;;;62.58;27.67;;;;;;;-0.02;77.25;99616.08;2222504;80;27634;-65
2020/12/10 10:32:55;;;;;;;68.22;28.75;;;;;;;-0.06;76.84;99614.38;2222238;80;28810;-66
2020/12/10 10:35:58;;;;;;;73.92;32.03;;;;;;;-0.11;76.82;99606.57;2222196;80;32095;-65
2020/12/10 10:39:01;;;;;;;81.17;32.13;;;;;;;-0.17;76.75;99611.50;2222004;80;33118;-66
2020/12/10 10:42:06;;;;;;;66.12;27.55;;;;;;;-0.19;76.91;99613.28;2076769;85;27666;-67
2020/12/10 10:45:11;;;;;;;57.30;24.47;;;;;;;-0.21;76.89;99603.22;2081521;85;27791;-66
2020/12/10 10:48:13;;;;;;;60.30;26.10;;;;;;;-0.17;76.97;99604.91;2081559;85;28831;-66
2020/12/10 10:51:15;;;;;;;55.10;24.60;;;;;;;-0.08;77.09;99599.91;2081481;85;31340;-65
2020/12/10 10:54:18;;;;;;;54.40;25.57;;;;;;;-0.02;76.89;99595.01;2081294;85;33116;-66
2020/12/10 10:57:22;;;;;;;53.52;24.15;;;;;;;0.01;76.70;99594.93;2070331;85;29714;-65
2020/12/10 11:00:27;;;;;;;51.73;23.25;;;;;;;-0.01;76.46;99578.31;2046540;86;27703;-66
2020/12/10 11:03:30;;;;;;;52.00;24.15;;;;;;;0.03;76.50;99578.66;2047272;86;28868;-67
2020/12/10 11:06:32;;;;;;;48.13;24.00;;;;;;;0.06;76.50;99583.88;2145427;79;31079;-66
2020/12/10 11:09:35;;;;;;;53.78;22.48;;;;;;;0.11;76.61;99573.25;2203412;80;33151;-65
2020/12/10 11:12:38;;;;;;;57.10;25.25;;;;;;;0.18;76.49;99576.20;2217847;79;28912;-67
2020/12/10 11:15:40;;;;;;;60.73;26.57;;;;;;;0.24;76.32;99567.31;2243090;79;27720;-66
2020/12/10 11:18:46;;;;;;;64.95;28.55;;;;;;;0.30;76.31;99565.89;2243074;79;28870;-65
2020/12/10 11:21:48;;;;;;;;;;;;;;;0.35;76.24;99561.38;2245901;79;32366;-66
2020/12/10 11:24:51;;;;;;;78.28;33.75;;;;;;;0.40;76.05;99557.36;2243222;79;33213;-66
2020/12/10 11:27:53;;;;;;;62.60;26.07;;;;;;;0.37;76.12;99556.95;2206111;79;28834;-65
2020/12/10 11:30:57;;;;;;;86.30;41.63;;;;;;;0.38;76.09;99553.41;2203499;80;27691;-66
2020/12/10 11:33:59;;;;;;;64.27;30.37;;;;;;;0.34;75.91;99544.30;2203388;80;29778;-65
2020/12/10 11:37:01;;;;;;;46.23;21.62;;;;;;;0.32;75.76;99548.72;2203135;80;31200;-66
2020/12/10 11:40:05;;;;;;;64.82;29.02;;;;;;;0.30;75.63;99544.34;2203495;80;33727;-65
2020/12/10 11:43:08;;;;;;;42.03;22.70;;;;;;;0.26;75.70;99551.03;2203665;80;28869;-66
2020/12/10 11:46:10;;;;;;;48.08;22.82;;;;;;;0.28;75.69;99551.41;2203701;80;27671;-66
2020/12/10 11:49:12;;;;;;;63.30;28.60;;;;;;;0.24;75.41;99552.83;2203589;80;28821;-66
2020/12/10 11:52:15;;;;;;;63.45;29.82;;;;;;;0.20;75.58;99559.92;2203643;80;32208;-65
2020/12/10 11:55:18;;;;;;;52.03;24.27;;;;;;;0.16;75.57;99550.80;2203580;79;33102;-66
2020/12/10 11:58:23;;;;;;;48.13;23.73;;;;;;;0.15;75.64;99556.50;2203542;80;29725;-66
2020/12/10 12:01:25;;;;;;;49.20;23.95;;;;;;;0.09;75.51;99555.29;2202830;80;28132;-65
2020/12/10 12:04:28;;;;;;;48.08;22.15;;;;;;;0.02;75.39;99558.95;2232766;79;28843;-66
2020/12/10 12:07:33;;;;;;;58.73;26.70;;;;;;;-0.05;75.41;99565.63;2242291;79;31140;-64
2020/12/10 12:10:35;;;;;;;51.77;23.65;;;;;;;-0.08;75.63;99553.84;2243355;79;34120;-64
2020/12/10 12:13:38;;;;;;;56.92;27.05;;;;;;;-0.09;75.64;99556.08;2243121;79;29941;-64
2020/12/10 12:16:48;;;;;;;66.97;28.90;;;;;;;-0.10;75.53;99552.14;2242889;79;27751;-64
2020/12/10 12:19:50;;;;;;;53.85;24.92;;;;;;;-0.13;75.67;99555.70;2206126;79;29763;-64
2020/12/10 12:22:55;;;;;;;60.00;25.08;;;;;;;-0.11;75.67;99559.18;2203130;80;32134;-65
2020/12/10 12:26:00;;;;;;;62.10;30.33;;;;;;;-0.16;75.77;99550.02;2203831;80;33130;-64
2020/12/10 12:29:02;;;;;;;66.25;30.95;;;;;;;-0.18;75.75;99553.59;2203800;80;28997;-65
2020/12/10 12:32:08;;;;;;;44.15;20.90;;;;;;;-0.19;75.92;99562.38;2203642;80;27661;-65
2020/12/10 12:35:11;;;;;;;66.50;32.08;;;;;;;-0.14;75.97;99559.66;2203536;80;28807;-64
2020/12/10 12:38:15;;;;;;;61.98;28.85;;;;;;;-0.16;76.01;99561.02;2202708;80;31064;-64
2020/12/10 12:41:17;;;;;;;59.73;28.65;;;;;;;-0.13;76.05;99564.92;2203485;80;34020;-65
2020/12/10 12:44:20;;;;;;;62.03;28.45;;;;;;;-0.07;76.12;99562.62;2184183;80;29737;-65
2020/12/10 12:47:23;;;;;;;53.25;24.65;;;;;;;-0.01;76.11;99566.47;2207033;80;27757;-65
2020/12/10 12:50:26;;;;;;;65.80;28.35;;;;;;;0.03;75.99;99562.01;2206364;80;28765;-65
2020/12/10 12:53:29;;;;;;;58.52;24.18;;;;;;;0.03;75.75;99565.95;2207114;80;31216;-65
2020/12/10 12:56:31;;;;;;;66.92;27.98;;;;;;;0.02;75.79;99566.39;2223952;79;33114;-65
2020/12/10 12:59:33;;;;;;;65.47;29.30;;;;;;;-0.04;75.78;99556.84;2246373;79;28921;-66
2020/12/10 13:02:38;;;;;;;66.57;30.77;;;;;;;-0.04;75.88;99563.42;2221233;79;27729;-65
2020/12/10 13:05:41;;;;;;;69.50;30.48;;;;;;;-0.05;75.98;99558.20;2213881;79;29724;-66
2020/12/10 13:08:43;;;;;;;69.60;27.80;;;;;;;-0.01;76.14;99563.38;2206633;80;31136;-66
2020/12/10 13:11:46;;;;;;;63.90;25.95;;;;;;;0.01;76.03;99560.70;2206194;80;33229;-66
2020/12/10 13:14:48;;;;;;;62.38;29.35;;;;;;;0.02;76.01;99557.63;2206764;80;28849;-66
2020/12/10 13:17:51;;;;;;;48.10;25.05;;;;;;;0.03;75.79;99548.38;2207076;80;28102;-66
2020/12/10 13:20:53;;;;;;;65.28;29.98;;;;;;;0.04;75.76;99548.80;2206842;80;29773;-67
2020/12/10 13:23:55;;;;;;;96.92;35.23;;;;;;;0.05;75.73;99543.10;2206487;80;32022;-66
2020/12/10 13:26:58;;;;;;;96.22;38.75;;;;;;;0.02;75.38;99551.91;2206739;79;34578;-66
2020/12/10 13:30:00;;;;;;;67.05;29.57;;;;;;;-0.01;75.61;99550.67;2206789;80;28870;-67
2020/12/10 13:33:03;;;;;;;68.85;29.05;;;;;;;0.02;75.73;99552.37;2206305;80;27712;-67
2020/12/10 13:36:09;;;;;;;67.12;31.10;;;;;;;0.02;75.60;99541.84;2222292;79;28809;-67
2020/12/10 13:39:12;;;;;;;67.60;30.20;;;;;;;0.03;75.54;99540.94;2246345;79;31146;-66
2020/12/10 13:42:16;;;;;;;62.53;30.75;;;;;;;-0.03;75.55;99538.83;2245011;79;33175;-67
2020/12/10 13:45:20;;;;;;;66.82;27.93;;;;;;;-0.04;75.58;99541.05;2206675;80;28869;-65
2020/12/10 13:48:22;;;;;;;66.20;30.08;;;;;;;-0.03;75.68;99541.93;2205989;80;28186;-65
2020/12/10 13:51:25;;;;;;;65.67;26.77;;;;;;;-0.03;75.68;99540.61;2206456;80;29757;-66
2020/12/10 13:54:28;;;;;;;70.37;29.12;;;;;;;-0.04;75.61;99548.09;2145925;82;31152;-65
2020/12/10 13:57:31;;;;;;;79.35;35.30;;;;;;;-0.04;75.68;99542.36;2206423;79;34012;-66
2020/12/10 14:00:35;;;;;;;71.75;31.95;;;;;;;-0.02;75.71;99548.94;2182773;81;28868;-66
2020/12/10 14:03:38;;;;;;;72.10;33.78;;;;;;;0.00;75.70;99541.88;2206676;80;27617;-65
2020/12/10 14:06:40;;;;;;;82.45;36.83;;;;;;;0.00;75.73;99533.98;2229250;79;29667;-66
2020/12/10 14:09:43;;;;;;;86.22;33.50;;;;;;;0.07;75.84;99536.90;2242359;79;30533;-66
2020/12/10 14:12:46;;;;;;;88.65;36.73;;;;;;;0.10;75.85;99527.63;2242608;79;33945;-66
2020/12/10 14:15:49;;;;;;;100.05;40.65;;;;;;;0.16;75.79;99525.78;2242868;79;28856;-66
2020/12/10 14:18:52;;;;;;;105.75;45.63;;;;;;;0.15;75.69;99524.89;2242990;79;27677;-66